HADR/DIR METAR and TAF weather

Enter ICAO airport designator
Station Type Date Time Source
HADR METAR 2018/07/18 12:00 UTC NOAA

HADR 181200Z 28008KT 230V330 9000 -HZ SCT810M 35/13 Q1014


Station Type Date Time Source
HADR Decoded METAR 2018/07/18 12:00 UTC NOAA

Dire Dawa, Ethiopia (HADR) 09-36N 041-52E 1146M
Jul 18, 2018 - 08:00 AM EDT / 2018.07.18 1200 UTC
Wind: from the W (280 degrees) at 9 MPH (8 KT) (direction variable):0
Visibility: 5 mile(s):0
Sky conditions: partly cloudy
Weather: light haze
Temperature: 95 F (35 C)
Dew Point: 55 F (13 C)
Relative Humidity: 26%
Pressure (altimeter): 29.94 in. Hg (1014 hPa)
ob: HADR 181200Z 28008KT 230V330 9000 -HZ SCT810M 35/13 Q1014
cycle: 12

Station Type Date Time Source
HADR TAF 2018/07/18 18:20 UTC NOAA

TAF HADR 181600Z 1818/1924 12010KT 9999 SCT040 SCT080
BECMG 1906/1909 06008KT
BECMG 1914/1917 VRB04KT


Example: see airport list